sensor_id;sensor_type;location;lat;lon;timestamp;P1;durP1;ratioP1;P2;durP2;ratioP2
40807;SDS011;26523;52.504;13.498;2022-11-10T00:01:54;3.70;;;1.05;;
40807;SDS011;26523;52.504;13.498;2022-11-10T00:04:20;3.50;;;1.00;;
40807;SDS011;26523;52.504;13.498;2022-11-10T00:06:46;2.13;;;1.10;;
40807;SDS011;26523;52.504;13.498;2022-11-10T00:09:12;9.10;;;1.70;;
40807;SDS011;26523;52.504;13.498;2022-11-10T00:11:38;2.88;;;1.10;;
40807;SDS011;26523;52.504;13.498;2022-11-10T00:14:04;4.20;;;1.77;;
40807;SDS011;26523;52.504;13.498;2022-11-10T00:16:49;9.98;;;1.90;;
40807;SDS011;26523;52.504;13.498;2022-11-10T00:19:32;1.67;;;1.10;;
40807;SDS011;26523;52.504;13.498;2022-11-10T00:21:58;4.03;;;0.82;;
40807;SDS011;26523;52.504;13.498;2022-11-10T00:24:25;3.15;;;1.30;;
40807;SDS011;26523;52.504;13.498;2022-11-10T00:26:52;1.55;;;0.70;;
40807;SDS011;26523;52.504;13.498;2022-11-10T00:29:18;3.55;;;1.35;;
40807;SDS011;26523;52.504;13.498;2022-11-10T00:31:43;2.60;;;1.20;;
40807;SDS011;26523;52.504;13.498;2022-11-10T00:34:10;2.63;;;1.23;;
40807;SDS011;26523;52.504;13.498;2022-11-10T00:36:37;4.55;;;0.82;;
40807;SDS011;26523;52.504;13.498;2022-11-10T00:39:04;1.35;;;0.90;;
40807;SDS011;26523;52.504;13.498;2022-11-10T00:41:30;3.22;;;0.80;;
40807;SDS011;26523;52.504;13.498;2022-11-10T00:43:56;2.15;;;0.95;;
40807;SDS011;26523;52.504;13.498;2022-11-10T00:46:22;1.75;;;0.82;;
40807;SDS011;26523;52.504;13.498;2022-11-10T00:48:47;2.08;;;0.80;;
40807;SDS011;26523;52.504;13.498;2022-11-10T00:51:20;2.47;;;1.08;;
40807;SDS011;26523;52.504;13.498;2022-11-10T00:53:48;3.65;;;0.70;;
40807;SDS011;26523;52.504;13.498;2022-11-10T00:56:15;1.30;;;0.70;;
40807;SDS011;26523;52.504;13.498;2022-11-10T00:58:41;3.80;;;1.02;;
40807;SDS011;26523;52.504;13.498;2022-11-10T01:01:07;2.53;;;0.98;;
40807;SDS011;26523;52.504;13.498;2022-11-10T01:03:34;3.83;;;1.20;;
40807;SDS011;26523;52.504;13.498;2022-11-10T01:06:07;2.28;;;1.00;;
40807;SDS011;26523;52.504;13.498;2022-11-10T01:08:35;5.65;;;1.20;;
40807;SDS011;26523;52.504;13.498;2022-11-10T01:11:05;5.18;;;1.30;;
40807;SDS011;26523;52.504;13.498;2022-11-10T01:13:32;1.63;;;0.90;;
40807;SDS011;26523;52.504;13.498;2022-11-10T01:16:09;3.30;;;1.10;;
40807;SDS011;26523;52.504;13.498;2022-11-10T01:18:36;2.50;;;0.85;;
40807;SDS011;26523;52.504;13.498;2022-11-10T01:21:02;4.40;;;1.13;;
40807;SDS011;26523;52.504;13.498;2022-11-10T01:23:29;4.88;;;1.70;;
40807;SDS011;26523;52.504;13.498;2022-11-10T01:25:56;4.05;;;1.17;;
40807;SDS011;26523;52.504;13.498;2022-11-10T01:28:24;7.53;;;0.80;;
40807;SDS011;26523;52.504;13.498;2022-11-10T01:30:57;1.52;;;0.95;;
40807;SDS011;26523;52.504;13.498;2022-11-10T01:33:23;4.80;;;1.33;;
40807;SDS011;26523;52.504;13.498;2022-11-10T01:35:49;5.40;;;1.98;;
40807;SDS011;26523;52.504;13.498;2022-11-10T01:38:15;7.20;;;1.10;;
40807;SDS011;26523;52.504;13.498;2022-11-10T01:40:40;5.50;;;1.38;;
40807;SDS011;26523;52.504;13.498;2022-11-10T01:43:08;3.53;;;1.10;;
40807;SDS011;26523;52.504;13.498;2022-11-10T01:45:43;1.65;;;0.85;;
40807;SDS011;26523;52.504;13.498;2022-11-10T01:48:10;7.03;;;1.20;;
40807;SDS011;26523;52.504;13.498;2022-11-10T01:50:41;4.05;;;1.08;;
40807;SDS011;26523;52.504;13.498;2022-11-10T01:53:10;3.17;;;1.25;;
40807;SDS011;26523;52.504;13.498;2022-11-10T01:55:42;3.95;;;1.00;;
40807;SDS011;26523;52.504;13.498;2022-11-10T01:58:09;5.22;;;1.13;;
40807;SDS011;26523;52.504;13.498;2022-11-10T02:00:38;4.85;;;1.80;;
40807;SDS011;26523;52.504;13.498;2022-11-10T02:05:54;1.85;;;1.10;;
40807;SDS011;26523;52.504;13.498;2022-11-10T02:08:20;2.92;;;1.15;;
40807;SDS011;26523;52.504;13.498;2022-11-10T02:10:47;2.15;;;0.90;;
40807;SDS011;26523;52.504;13.498;2022-11-10T02:13:12;4.22;;;1.10;;
40807;SDS011;26523;52.504;13.498;2022-11-10T02:15:38;5.38;;;1.15;;
40807;SDS011;26523;52.504;13.498;2022-11-10T02:18:04;4.35;;;0.77;;
40807;SDS011;26523;52.504;13.498;2022-11-10T02:20:30;4.57;;;1.23;;
40807;SDS011;26523;52.504;13.498;2022-11-10T02:22:55;2.97;;;0.70;;
40807;SDS011;26523;52.504;13.498;2022-11-10T02:25:21;2.00;;;1.10;;
40807;SDS011;26523;52.504;13.498;2022-11-10T02:27:49;1.88;;;0.85;;
40807;SDS011;26523;52.504;13.498;2022-11-10T02:30:15;2.97;;;1.08;;
40807;SDS011;26523;52.504;13.498;2022-11-10T02:32:41;2.15;;;0.90;;
40807;SDS011;26523;52.504;13.498;2022-11-10T02:35:07;5.80;;;1.08;;
40807;SDS011;26523;52.504;13.498;2022-11-10T02:37:33;2.90;;;0.80;;
40807;SDS011;26523;52.504;13.498;2022-11-10T02:39:59;4.88;;;1.00;;
40807;SDS011;26523;52.504;13.498;2022-11-10T02:42:24;2.05;;;0.70;;
40807;SDS011;26523;52.504;13.498;2022-11-10T02:44:50;7.93;;;0.60;;
40807;SDS011;26523;52.504;13.498;2022-11-10T02:47:16;2.85;;;1.30;;
40807;SDS011;26523;52.504;13.498;2022-11-10T02:49:42;4.38;;;1.35;;
40807;SDS011;26523;52.504;13.498;2022-11-10T02:52:09;9.55;;;1.50;;
40807;SDS011;26523;52.504;13.498;2022-11-10T02:54:35;4.38;;;1.02;;
40807;SDS011;26523;52.504;13.498;2022-11-10T02:57:01;2.60;;;1.08;;
40807;SDS011;26523;52.504;13.498;2022-11-10T02:59:27;1.55;;;1.00;;
40807;SDS011;26523;52.504;13.498;2022-11-10T03:01:53;5.45;;;1.10;;
40807;SDS011;26523;52.504;13.498;2022-11-10T03:04:18;3.17;;;1.50;;
40807;SDS011;26523;52.504;13.498;2022-11-10T03:06:44;1.83;;;0.70;;
40807;SDS011;26523;52.504;13.498;2022-11-10T03:09:10;3.03;;;0.82;;
40807;SDS011;26523;52.504;13.498;2022-11-10T03:11:36;4.28;;;0.98;;
40807;SDS011;26523;52.504;13.498;2022-11-10T03:14:01;3.25;;;1.10;;
40807;SDS011;26523;52.504;13.498;2022-11-10T03:16:27;6.70;;;1.85;;
40807;SDS011;26523;52.504;13.498;2022-11-10T03:18:54;3.33;;;1.25;;
40807;SDS011;26523;52.504;13.498;2022-11-10T03:21:19;3.65;;;1.35;;
40807;SDS011;26523;52.504;13.498;2022-11-10T03:23:45;6.63;;;1.15;;
40807;SDS011;26523;52.504;13.498;2022-11-10T03:26:11;3.08;;;1.10;;
40807;SDS011;26523;52.504;13.498;2022-11-10T03:28:36;5.30;;;0.95;;
40807;SDS011;26523;52.504;13.498;2022-11-10T03:31:02;4.45;;;1.23;;
40807;SDS011;26523;52.504;13.498;2022-11-10T03:33:27;4.50;;;1.60;;
40807;SDS011;26523;52.504;13.498;2022-11-10T03:35:53;7.70;;;1.20;;
40807;SDS011;26523;52.504;13.498;2022-11-10T03:38:19;2.92;;;0.85;;
40807;SDS011;26523;52.504;13.498;2022-11-10T03:40:44;4.40;;;0.82;;
40807;SDS011;26523;52.504;13.498;2022-11-10T03:43:10;3.75;;;1.10;;
40807;SDS011;26523;52.504;13.498;2022-11-10T03:45:36;5.28;;;1.45;;
40807;SDS011;26523;52.504;13.498;2022-11-10T03:48:01;6.63;;;1.05;;
40807;SDS011;26523;52.504;13.498;2022-11-10T03:50:28;3.55;;;1.20;;
40807;SDS011;26523;52.504;13.498;2022-11-10T03:52:53;6.38;;;1.48;;
40807;SDS011;26523;52.504;13.498;2022-11-10T03:55:19;5.38;;;1.02;;
40807;SDS011;26523;52.504;13.498;2022-11-10T03:57:44;4.30;;;1.00;;
40807;SDS011;26523;52.504;13.498;2022-11-10T04:00:11;4.40;;;1.23;;
40807;SDS011;26523;52.504;13.498;2022-11-10T04:02:37;2.92;;;1.25;;
40807;SDS011;26523;52.504;13.498;2022-11-10T04:05:04;3.05;;;1.23;;
40807;SDS011;26523;52.504;13.498;2022-11-10T04:07:55;2.85;;;1.38;;
40807;SDS011;26523;52.504;13.498;2022-11-10T04:10:42;3.35;;;1.73;;
40807;SDS011;26523;52.504;13.498;2022-11-10T04:13:08;1.52;;;0.80;;
40807;SDS011;26523;52.504;13.498;2022-11-10T04:15:53;3.72;;;1.23;;
40807;SDS011;26523;52.504;13.498;2022-11-10T04:18:19;6.47;;;1.20;;
40807;SDS011;26523;52.504;13.498;2022-11-10T04:21:00;4.78;;;1.05;;
40807;SDS011;26523;52.504;13.498;2022-11-10T04:23:28;5.32;;;1.33;;
40807;SDS011;26523;52.504;13.498;2022-11-10T04:28:43;2.33;;;1.33;;
40807;SDS011;26523;52.504;13.498;2022-11-10T04:31:14;5.85;;;0.90;;
40807;SDS011;26523;52.504;13.498;2022-11-10T04:33:41;4.20;;;0.90;;
40807;SDS011;26523;52.504;13.498;2022-11-10T04:36:07;4.05;;;1.13;;
40807;SDS011;26523;52.504;13.498;2022-11-10T04:38:34;5.22;;;1.27;;
40807;SDS011;26523;52.504;13.498;2022-11-10T04:41:00;3.22;;;1.00;;
40807;SDS011;26523;52.504;13.498;2022-11-10T04:43:27;8.30;;;1.60;;
40807;SDS011;26523;52.504;13.498;2022-11-10T04:45:53;2.67;;;0.98;;
40807;SDS011;26523;52.504;13.498;2022-11-10T04:48:19;6.28;;;1.13;;
40807;SDS011;26523;52.504;13.498;2022-11-10T04:50:45;4.30;;;1.30;;
40807;SDS011;26523;52.504;13.498;2022-11-10T04:53:10;6.07;;;1.45;;
40807;SDS011;26523;52.504;13.498;2022-11-10T04:55:40;6.68;;;1.40;;
40807;SDS011;26523;52.504;13.498;2022-11-10T04:58:06;2.95;;;1.02;;
40807;SDS011;26523;52.504;13.498;2022-11-10T05:00:32;5.50;;;1.27;;
40807;SDS011;26523;52.504;13.498;2022-11-10T05:02:59;2.63;;;1.17;;
40807;SDS011;26523;52.504;13.498;2022-11-10T05:05:26;12.93;;;2.28;;
40807;SDS011;26523;52.504;13.498;2022-11-10T05:07:51;4.10;;;1.27;;
40807;SDS011;26523;52.504;13.498;2022-11-10T05:10:17;5.38;;;1.58;;
40807;SDS011;26523;52.504;13.498;2022-11-10T05:12:43;2.97;;;1.27;;
40807;SDS011;26523;52.504;13.498;2022-11-10T05:15:09;3.75;;;1.30;;
40807;SDS011;26523;52.504;13.498;2022-11-10T05:17:35;5.65;;;1.50;;
40807;SDS011;26523;52.504;13.498;2022-11-10T05:20:01;5.00;;;2.00;;
40807;SDS011;26523;52.504;13.498;2022-11-10T05:22:26;5.20;;;1.75;;
40807;SDS011;26523;52.504;13.498;2022-11-10T05:24:52;6.18;;;1.40;;
40807;SDS011;26523;52.504;13.498;2022-11-10T05:27:17;5.03;;;2.17;;
40807;SDS011;26523;52.504;13.498;2022-11-10T05:29:43;6.43;;;1.52;;
40807;SDS011;26523;52.504;13.498;2022-11-10T05:32:09;5.28;;;1.60;;
40807;SDS011;26523;52.504;13.498;2022-11-10T05:34:34;4.68;;;1.52;;
40807;SDS011;26523;52.504;13.498;2022-11-10T05:37:00;6.47;;;1.40;;
40807;SDS011;26523;52.504;13.498;2022-11-10T05:39:25;10.77;;;1.63;;
40807;SDS011;26523;52.504;13.498;2022-11-10T05:41:51;2.92;;;1.10;;
40807;SDS011;26523;52.504;13.498;2022-11-10T05:44:17;7.30;;;1.63;;
40807;SDS011;26523;52.504;13.498;2022-11-10T05:46:43;4.28;;;1.60;;
40807;SDS011;26523;52.504;13.498;2022-11-10T05:49:08;8.88;;;1.27;;
40807;SDS011;26523;52.504;13.498;2022-11-10T05:51:34;6.53;;;2.40;;
40807;SDS011;26523;52.504;13.498;2022-11-10T05:53:59;10.20;;;1.75;;
40807;SDS011;26523;52.504;13.498;2022-11-10T05:56:25;3.97;;;1.33;;
40807;SDS011;26523;52.504;13.498;2022-11-10T05:58:51;6.55;;;2.30;;
40807;SDS011;26523;52.504;13.498;2022-11-10T06:01:16;11.23;;;2.42;;
40807;SDS011;26523;52.504;13.498;2022-11-10T06:03:42;5.10;;;1.50;;
40807;SDS011;26523;52.504;13.498;2022-11-10T06:06:07;5.05;;;1.73;;
40807;SDS011;26523;52.504;13.498;2022-11-10T06:08:33;1.83;;;1.17;;
40807;SDS011;26523;52.504;13.498;2022-11-10T06:10:59;10.30;;;1.70;;
40807;SDS011;26523;52.504;13.498;2022-11-10T06:13:24;3.67;;;1.85;;
40807;SDS011;26523;52.504;13.498;2022-11-10T06:15:50;8.48;;;1.95;;
40807;SDS011;26523;52.504;13.498;2022-11-10T06:18:16;4.78;;;1.48;;
40807;SDS011;26523;52.504;13.498;2022-11-10T06:20:42;8.32;;;2.55;;
40807;SDS011;26523;52.504;13.498;2022-11-10T06:23:11;9.27;;;2.92;;
40807;SDS011;26523;52.504;13.498;2022-11-10T06:25:38;11.10;;;1.83;;
40807;SDS011;26523;52.504;13.498;2022-11-10T06:28:05;5.30;;;2.00;;
40807;SDS011;26523;52.504;13.498;2022-11-10T06:30:33;5.82;;;2.58;;
40807;SDS011;26523;52.504;13.498;2022-11-10T06:32:59;14.55;;;2.25;;
40807;SDS011;26523;52.504;13.498;2022-11-10T06:35:26;8.93;;;2.67;;
40807;SDS011;26523;52.504;13.498;2022-11-10T06:37:59;6.10;;;2.03;;
40807;SDS011;26523;52.504;13.498;2022-11-10T06:40:26;6.88;;;1.92;;
40807;SDS011;26523;52.504;13.498;2022-11-10T06:42:52;7.20;;;1.75;;
40807;SDS011;26523;52.504;13.498;2022-11-10T06:45:18;5.70;;;2.72;;
40807;SDS011;26523;52.504;13.498;2022-11-10T06:47:44;6.20;;;1.98;;
40807;SDS011;26523;52.504;13.498;2022-11-10T06:50:09;6.10;;;1.90;;
40807;SDS011;26523;52.504;13.498;2022-11-10T06:52:35;3.83;;;1.52;;
40807;SDS011;26523;52.504;13.498;2022-11-10T06:55:01;8.40;;;2.15;;
40807;SDS011;26523;52.504;13.498;2022-11-10T06:57:26;8.00;;;1.98;;
40807;SDS011;26523;52.504;13.498;2022-11-10T06:59:52;5.22;;;1.45;;
40807;SDS011;26523;52.504;13.498;2022-11-10T07:02:18;9.20;;;2.42;;
40807;SDS011;26523;52.504;13.498;2022-11-10T07:04:44;9.48;;;1.92;;
40807;SDS011;26523;52.504;13.498;2022-11-10T07:07:10;3.20;;;1.65;;
40807;SDS011;26523;52.504;13.498;2022-11-10T07:09:36;9.75;;;2.28;;
40807;SDS011;26523;52.504;13.498;2022-11-10T07:12:02;7.57;;;1.70;;
40807;SDS011;26523;52.504;13.498;2022-11-10T07:14:29;6.50;;;2.30;;
40807;SDS011;26523;52.504;13.498;2022-11-10T07:16:54;6.75;;;1.83;;
40807;SDS011;26523;52.504;13.498;2022-11-10T07:19:20;7.93;;;1.27;;
40807;SDS011;26523;52.504;13.498;2022-11-10T07:22:08;3.67;;;1.77;;
40807;SDS011;26523;52.504;13.498;2022-11-10T07:24:34;3.85;;;1.80;;
40807;SDS011;26523;52.504;13.498;2022-11-10T07:27:00;9.02;;;2.13;;
40807;SDS011;26523;52.504;13.498;2022-11-10T07:29:26;6.50;;;2.05;;
40807;SDS011;26523;52.504;13.498;2022-11-10T07:31:51;4.93;;;1.67;;
40807;SDS011;26523;52.504;13.498;2022-11-10T07:34:17;4.32;;;2.05;;
40807;SDS011;26523;52.504;13.498;2022-11-10T07:36:43;5.38;;;1.80;;
40807;SDS011;26523;52.504;13.498;2022-11-10T07:39:09;13.48;;;3.50;;
40807;SDS011;26523;52.504;13.498;2022-11-10T07:41:35;7.47;;;1.98;;
40807;SDS011;26523;52.504;13.498;2022-11-10T07:44:01;5.05;;;1.95;;
40807;SDS011;26523;52.504;13.498;2022-11-10T07:46:27;6.93;;;1.42;;
40807;SDS011;26523;52.504;13.498;2022-11-10T07:48:53;4.13;;;1.80;;
40807;SDS011;26523;52.504;13.498;2022-11-10T07:51:18;4.53;;;1.80;;
40807;SDS011;26523;52.504;13.498;2022-11-10T07:53:44;4.10;;;1.63;;
40807;SDS011;26523;52.504;13.498;2022-11-10T07:56:10;7.30;;;2.17;;
40807;SDS011;26523;52.504;13.498;2022-11-10T07:58:35;11.93;;;2.50;;
40807;SDS011;26523;52.504;13.498;2022-11-10T08:01:01;6.63;;;2.13;;
40807;SDS011;26523;52.504;13.498;2022-11-10T08:03:27;5.45;;;2.00;;
40807;SDS011;26523;52.504;13.498;2022-11-10T08:05:53;4.32;;;1.90;;
40807;SDS011;26523;52.504;13.498;2022-11-10T08:08:19;11.15;;;2.20;;
40807;SDS011;26523;52.504;13.498;2022-11-10T08:10:45;12.05;;;2.88;;
40807;SDS011;26523;52.504;13.498;2022-11-10T08:13:11;10.18;;;2.97;;
40807;SDS011;26523;52.504;13.498;2022-11-10T08:15:37;6.40;;;2.38;;
40807;SDS011;26523;52.504;13.498;2022-11-10T08:18:05;6.72;;;1.95;;
40807;SDS011;26523;52.504;13.498;2022-11-10T08:20:31;6.30;;;2.10;;
40807;SDS011;26523;52.504;13.498;2022-11-10T08:22:57;4.80;;;1.90;;
40807;SDS011;26523;52.504;13.498;2022-11-10T08:25:25;5.35;;;2.00;;
40807;SDS011;26523;52.504;13.498;2022-11-10T08:27:59;9.23;;;2.40;;
40807;SDS011;26523;52.504;13.498;2022-11-10T08:30:30;11.48;;;2.25;;
40807;SDS011;26523;52.504;13.498;2022-11-10T08:32:57;8.10;;;2.65;;
40807;SDS011;26523;52.504;13.498;2022-11-10T08:35:26;8.85;;;3.13;;
40807;SDS011;26523;52.504;13.498;2022-11-10T08:37:53;6.97;;;2.03;;
40807;SDS011;26523;52.504;13.498;2022-11-10T08:40:19;4.88;;;1.67;;
40807;SDS011;26523;52.504;13.498;2022-11-10T08:42:46;8.48;;;3.72;;
40807;SDS011;26523;52.504;13.498;2022-11-10T08:45:12;4.22;;;1.55;;
40807;SDS011;26523;52.504;13.498;2022-11-10T08:47:38;6.00;;;2.00;;
40807;SDS011;26523;52.504;13.498;2022-11-10T08:50:04;10.68;;;2.15;;
40807;SDS011;26523;52.504;13.498;2022-11-10T08:52:31;8.88;;;2.22;;
40807;SDS011;26523;52.504;13.498;2022-11-10T08:54:57;5.40;;;2.10;;
40807;SDS011;26523;52.504;13.498;2022-11-10T08:57:23;11.38;;;2.08;;
40807;SDS011;26523;52.504;13.498;2022-11-10T08:59:49;7.40;;;1.75;;
40807;SDS011;26523;52.504;13.498;2022-11-10T09:02:15;5.25;;;2.25;;
40807;SDS011;26523;52.504;13.498;2022-11-10T09:04:41;5.32;;;2.35;;
40807;SDS011;26523;52.504;13.498;2022-11-10T09:07:06;7.50;;;2.50;;
40807;SDS011;26523;52.504;13.498;2022-11-10T09:09:32;7.72;;;2.03;;
40807;SDS011;26523;52.504;13.498;2022-11-10T09:11:58;7.53;;;1.80;;
40807;SDS011;26523;52.504;13.498;2022-11-10T09:14:23;10.55;;;1.92;;
40807;SDS011;26523;52.504;13.498;2022-11-10T09:16:49;10.55;;;2.50;;
40807;SDS011;26523;52.504;13.498;2022-11-10T09:19:15;8.07;;;2.47;;
40807;SDS011;26523;52.504;13.498;2022-11-10T09:21:40;8.05;;;2.30;;
40807;SDS011;26523;52.504;13.498;2022-11-10T09:24:06;9.85;;;2.97;;
40807;SDS011;26523;52.504;13.498;2022-11-10T09:26:32;5.32;;;2.72;;
40807;SDS011;26523;52.504;13.498;2022-11-10T09:28:58;6.00;;;1.48;;
40807;SDS011;26523;52.504;13.498;2022-11-10T09:31:23;4.57;;;1.70;;
40807;SDS011;26523;52.504;13.498;2022-11-10T09:33:49;6.30;;;2.10;;
40807;SDS011;26523;52.504;13.498;2022-11-10T09:36:15;5.97;;;2.35;;
40807;SDS011;26523;52.504;13.498;2022-11-10T09:38:40;7.25;;;1.67;;
40807;SDS011;26523;52.504;13.498;2022-11-10T09:41:07;6.50;;;2.38;;
40807;SDS011;26523;52.504;13.498;2022-11-10T09:46:44;6.63;;;1.92;;
40807;SDS011;26523;52.504;13.498;2022-11-10T09:52:00;7.47;;;1.70;;
40807;SDS011;26523;52.504;13.498;2022-11-10T09:54:32;4.18;;;1.83;;
40807;SDS011;26523;52.504;13.498;2022-11-10T09:57:09;9.57;;;2.13;;
40807;SDS011;26523;52.504;13.498;2022-11-10T09:59:37;9.50;;;2.10;;
40807;SDS011;26523;52.504;13.498;2022-11-10T10:02:20;9.48;;;2.05;;
40807;SDS011;26523;52.504;13.498;2022-11-10T10:07:58;8.30;;;1.90;;
40807;SDS011;26523;52.504;13.498;2022-11-10T10:10:31;14.02;;;2.67;;
40807;SDS011;26523;52.504;13.498;2022-11-10T10:21:14;4.00;;;1.42;;
40807;SDS011;26523;52.504;13.498;2022-11-10T10:23:49;8.27;;;1.98;;
40807;SDS011;26523;52.504;13.498;2022-11-10T10:26:23;5.32;;;1.42;;
40807;SDS011;26523;52.504;13.498;2022-11-10T10:28:53;9.63;;;2.25;;
40807;SDS011;26523;52.504;13.498;2022-11-10T10:31:25;11.77;;;2.22;;
40807;SDS011;26523;52.504;13.498;2022-11-10T10:33:59;5.63;;;2.58;;
40807;SDS011;26523;52.504;13.498;2022-11-10T10:36:26;8.70;;;2.15;;
40807;SDS011;26523;52.504;13.498;2022-11-10T10:38:54;7.05;;;2.35;;
40807;SDS011;26523;52.504;13.498;2022-11-10T10:43:53;5.47;;;1.98;;
40807;SDS011;26523;52.504;13.498;2022-11-10T10:46:21;6.95;;;2.15;;
40807;SDS011;26523;52.504;13.498;2022-11-10T10:51:59;3.58;;;1.48;;
40807;SDS011;26523;52.504;13.498;2022-11-10T10:54:39;19.38;;;2.25;;
40807;SDS011;26523;52.504;13.498;2022-11-10T10:59:31;5.07;;;1.52;;
40807;SDS011;26523;52.504;13.498;2022-11-10T11:01:57;7.50;;;1.40;;
40807;SDS011;26523;52.504;13.498;2022-11-10T11:07:03;7.07;;;1.30;;
40807;SDS011;26523;52.504;13.498;2022-11-10T11:09:37;4.47;;;1.83;;
40807;SDS011;26523;52.504;13.498;2022-11-10T11:12:06;9.60;;;1.98;;
40807;SDS011;26523;52.504;13.498;2022-11-10T11:18:00;9.75;;;1.92;;
40807;SDS011;26523;52.504;13.498;2022-11-10T11:20:40;8.02;;;2.03;;
40807;SDS011;26523;52.504;13.498;2022-11-10T11:25:41;8.35;;;2.05;;
40807;SDS011;26523;52.504;13.498;2022-11-10T11:28:19;6.07;;;1.65;;
40807;SDS011;26523;52.504;13.498;2022-11-10T11:31:12;11.93;;;1.80;;
40807;SDS011;26523;52.504;13.498;2022-11-10T11:34:04;6.78;;;1.42;;
40807;SDS011;26523;52.504;13.498;2022-11-10T11:36:47;5.53;;;1.50;;
40807;SDS011;26523;52.504;13.498;2022-11-10T11:45:17;8.82;;;1.73;;
40807;SDS011;26523;52.504;13.498;2022-11-10T11:56:33;3.60;;;1.30;;
40807;SDS011;26523;52.504;13.498;2022-11-10T12:12:16;4.80;;;1.30;;
40807;SDS011;26523;52.504;13.498;2022-11-10T12:17:47;2.83;;;1.30;;
40807;SDS011;26523;52.504;13.498;2022-11-10T12:20:37;4.82;;;1.30;;
40807;SDS011;26523;52.504;13.498;2022-11-10T12:23:28;4.18;;;1.73;;
40807;SDS011;26523;52.504;13.498;2022-11-10T12:31:56;7.82;;;1.70;;
40807;SDS011;26523;52.504;13.498;2022-11-10T12:34:29;9.68;;;2.13;;
40807;SDS011;26523;52.504;13.498;2022-11-10T12:37:00;4.75;;;1.45;;
40807;SDS011;26523;52.504;13.498;2022-11-10T12:41:59;11.45;;;1.92;;
40807;SDS011;26523;52.504;13.498;2022-11-10T12:47:21;6.88;;;1.58;;
40807;SDS011;26523;52.504;13.498;2022-11-10T12:52:46;7.35;;;1.60;;
40807;SDS011;26523;52.504;13.498;2022-11-10T12:55:17;6.82;;;2.08;;
40807;SDS011;26523;52.504;13.498;2022-11-10T12:57:56;5.45;;;2.00;;
40807;SDS011;26523;52.504;13.498;2022-11-10T13:00:26;2.88;;;1.17;;
40807;SDS011;26523;52.504;13.498;2022-11-10T13:02:54;9.77;;;1.40;;
40807;SDS011;26523;52.504;13.498;2022-11-10T13:05:25;5.88;;;1.35;;
40807;SDS011;26523;52.504;13.498;2022-11-10T13:10:48;4.72;;;1.38;;
40807;SDS011;26523;52.504;13.498;2022-11-10T13:13:16;2.33;;;1.08;;
40807;SDS011;26523;52.504;13.498;2022-11-10T13:18:09;11.80;;;1.33;;
40807;SDS011;26523;52.504;13.498;2022-11-10T13:20:45;4.15;;;1.52;;
40807;SDS011;26523;52.504;13.498;2022-11-10T13:26:01;5.28;;;1.48;;
40807;SDS011;26523;52.504;13.498;2022-11-10T13:36:35;4.28;;;0.82;;
40807;SDS011;26523;52.504;13.498;2022-11-10T13:39:14;1.90;;;0.82;;
40807;SDS011;26523;52.504;13.498;2022-11-10T13:44:40;7.95;;;1.92;;
40807;SDS011;26523;52.504;13.498;2022-11-10T13:52:17;5.22;;;1.50;;
40807;SDS011;26523;52.504;13.498;2022-11-10T13:55:18;4.72;;;1.23;;
40807;SDS011;26523;52.504;13.498;2022-11-10T14:06:19;3.40;;;1.05;;
40807;SDS011;26523;52.504;13.498;2022-11-10T14:11:45;10.70;;;1.90;;
40807;SDS011;26523;52.504;13.498;2022-11-10T14:14:19;5.82;;;1.65;;
40807;SDS011;26523;52.504;13.498;2022-11-10T14:16:51;7.10;;;1.60;;
40807;SDS011;26523;52.504;13.498;2022-11-10T14:21:56;4.20;;;1.48;;
40807;SDS011;26523;52.504;13.498;2022-11-10T14:24:35;7.30;;;1.90;;
40807;SDS011;26523;52.504;13.498;2022-11-10T14:27:10;7.72;;;1.20;;
40807;SDS011;26523;52.504;13.498;2022-11-10T14:29:39;4.60;;;1.80;;
40807;SDS011;26523;52.504;13.498;2022-11-10T14:32:16;7.70;;;1.05;;
40807;SDS011;26523;52.504;13.498;2022-11-10T14:34:46;5.07;;;1.55;;
40807;SDS011;26523;52.504;13.498;2022-11-10T14:37:19;5.45;;;0.90;;
40807;SDS011;26523;52.504;13.498;2022-11-10T14:39:47;3.35;;;1.20;;
40807;SDS011;26523;52.504;13.498;2022-11-10T14:42:18;6.50;;;1.45;;
40807;SDS011;26523;52.504;13.498;2022-11-10T14:45:03;3.50;;;1.40;;
40807;SDS011;26523;52.504;13.498;2022-11-10T14:47:32;8.25;;;2.03;;
40807;SDS011;26523;52.504;13.498;2022-11-10T14:50:03;10.00;;;1.98;;
40807;SDS011;26523;52.504;13.498;2022-11-10T14:52:39;7.00;;;1.85;;
40807;SDS011;26523;52.504;13.498;2022-11-10T14:55:12;4.75;;;1.33;;
40807;SDS011;26523;52.504;13.498;2022-11-10T14:57:50;11.85;;;1.42;;
40807;SDS011;26523;52.504;13.498;2022-11-10T15:00:25;8.15;;;1.42;;
40807;SDS011;26523;52.504;13.498;2022-11-10T15:02:55;7.28;;;1.33;;
40807;SDS011;26523;52.504;13.498;2022-11-10T15:05:22;6.55;;;1.90;;
40807;SDS011;26523;52.504;13.498;2022-11-10T15:07:53;8.35;;;1.67;;
40807;SDS011;26523;52.504;13.498;2022-11-10T15:13:02;3.63;;;1.48;;
40807;SDS011;26523;52.504;13.498;2022-11-10T15:15:38;5.57;;;1.48;;
40807;SDS011;26523;52.504;13.498;2022-11-10T15:18:05;8.07;;;2.30;;
40807;SDS011;26523;52.504;13.498;2022-11-10T15:23:02;7.45;;;1.33;;
40807;SDS011;26523;52.504;13.498;2022-11-10T15:25:34;7.70;;;2.65;;
40807;SDS011;26523;52.504;13.498;2022-11-10T15:28:05;9.55;;;2.03;;
40807;SDS011;26523;52.504;13.498;2022-11-10T15:30:46;7.93;;;1.55;;
40807;SDS011;26523;52.504;13.498;2022-11-10T15:33:16;9.30;;;1.80;;
40807;SDS011;26523;52.504;13.498;2022-11-10T15:35:48;2.58;;;1.10;;
40807;SDS011;26523;52.504;13.498;2022-11-10T15:38:27;8.70;;;2.15;;
40807;SDS011;26523;52.504;13.498;2022-11-10T15:41:03;5.40;;;1.80;;
40807;SDS011;26523;52.504;13.498;2022-11-10T15:43:36;9.10;;;2.13;;
40807;SDS011;26523;52.504;13.498;2022-11-10T15:46:07;8.57;;;1.75;;
40807;SDS011;26523;52.504;13.498;2022-11-10T15:48:39;5.68;;;1.70;;
40807;SDS011;26523;52.504;13.498;2022-11-10T15:51:10;10.48;;;2.30;;
40807;SDS011;26523;52.504;13.498;2022-11-10T15:53:39;6.60;;;1.70;;
40807;SDS011;26523;52.504;13.498;2022-11-10T15:56:09;8.88;;;1.77;;
40807;SDS011;26523;52.504;13.498;2022-11-10T15:58:38;5.15;;;1.80;;
40807;SDS011;26523;52.504;13.498;2022-11-10T16:01:04;13.23;;;2.35;;
40807;SDS011;26523;52.504;13.498;2022-11-10T16:03:30;9.32;;;2.80;;
40807;SDS011;26523;52.504;13.498;2022-11-10T16:05:56;12.25;;;3.90;;
40807;SDS011;26523;52.504;13.498;2022-11-10T16:08:22;12.18;;;2.65;;
40807;SDS011;26523;52.504;13.498;2022-11-10T16:10:48;6.85;;;2.03;;
40807;SDS011;26523;52.504;13.498;2022-11-10T16:13:17;5.95;;;1.73;;
40807;SDS011;26523;52.504;13.498;2022-11-10T16:15:47;6.13;;;1.63;;
40807;SDS011;26523;52.504;13.498;2022-11-10T16:18:15;9.93;;;2.15;;
40807;SDS011;26523;52.504;13.498;2022-11-10T16:20:46;9.02;;;2.35;;
40807;SDS011;26523;52.504;13.498;2022-11-10T16:23:16;7.05;;;1.98;;
40807;SDS011;26523;52.504;13.498;2022-11-10T16:25:42;9.07;;;2.58;;
40807;SDS011;26523;52.504;13.498;2022-11-10T16:28:09;10.20;;;2.67;;
40807;SDS011;26523;52.504;13.498;2022-11-10T16:30:37;7.65;;;1.73;;
40807;SDS011;26523;52.504;13.498;2022-11-10T16:33:03;9.77;;;2.13;;
40807;SDS011;26523;52.504;13.498;2022-11-10T16:35:29;10.38;;;2.70;;
40807;SDS011;26523;52.504;13.498;2022-11-10T16:37:54;11.02;;;2.17;;
40807;SDS011;26523;52.504;13.498;2022-11-10T16:40:21;8.10;;;2.22;;
40807;SDS011;26523;52.504;13.498;2022-11-10T16:42:55;11.73;;;2.70;;
40807;SDS011;26523;52.504;13.498;2022-11-10T16:45:22;8.18;;;1.98;;
40807;SDS011;26523;52.504;13.498;2022-11-10T16:47:53;6.93;;;2.47;;
40807;SDS011;26523;52.504;13.498;2022-11-10T16:50:23;5.43;;;1.88;;